createdAt,value
2017-02-10T00:00:13.077Z,3.34
2017-02-10T00:01:12.890Z,3.28
2017-02-10T00:02:13.090Z,3.28
2017-02-10T00:03:13.100Z,3.23
2017-02-10T00:04:12.926Z,3.22
2017-02-10T00:05:13.122Z,3.28
2017-02-10T00:06:12.938Z,3.14
2017-02-10T00:07:13.154Z,3.23
2017-02-10T00:08:13.153Z,3.21
2017-02-10T00:09:12.557Z,3.14
2017-02-10T00:10:13.166Z,3.22
2017-02-10T00:11:13.183Z,3.19
2017-02-10T00:12:13.187Z,3.22
2017-02-10T00:13:12.979Z,3.18
2017-02-10T00:14:12.993Z,3.21
2017-02-10T00:15:13.225Z,3.21
2017-02-10T00:16:13.227Z,3.23
2017-02-10T00:17:12.906Z,3.14
2017-02-10T00:18:13.248Z,3.23
2017-02-10T00:19:13.259Z,3.18
2017-02-10T00:20:13.269Z,3.22
2017-02-10T00:21:13.275Z,3.11
2017-02-10T00:22:12.889Z,3.1
2017-02-10T00:23:13.293Z,3.08
2017-02-10T00:24:12.904Z,3.13
2017-02-10T00:25:13.313Z,3.13
2017-02-10T00:26:13.323Z,3.08
2017-02-10T00:27:12.944Z,3.1
2017-02-10T00:28:13.340Z,3.13
2017-02-10T00:29:13.348Z,3.08
2017-02-10T00:30:12.961Z,3.08
2017-02-10T00:31:13.371Z,3.13
2017-02-10T00:32:12.983Z,3.16
2017-02-10T00:33:13.389Z,3.1
2017-02-10T00:34:13.098Z,3.04
2017-02-10T00:35:13.412Z,3.03
2017-02-10T00:36:13.426Z,3.07
2017-02-10T00:37:13.432Z,3.05
2017-02-10T00:38:13.441Z,3.04
2017-02-10T00:39:13.055Z,3.1
2017-02-10T00:40:13.056Z,3.01
2017-02-10T00:41:13.466Z,3.08
2017-02-10T00:42:13.565Z,3.05
2017-02-10T00:43:13.706Z,3.08
2017-02-10T00:44:13.598Z,3.08
2017-02-10T00:45:13.511Z,3.13
2017-02-10T00:46:13.519Z,3.13
2017-02-10T00:47:13.523Z,3.05
2017-02-10T00:48:13.535Z,3
2017-02-10T00:49:13.161Z,3.04
2017-02-10T00:50:13.154Z,2.97
2017-02-10T00:51:13.563Z,3.03
2017-02-10T00:52:13.570Z,2.98
2017-02-10T00:53:13.584Z,3.03
2017-02-10T00:54:13.590Z,3.07
2017-02-10T00:55:13.601Z,3.1
2017-02-10T00:56:13.617Z,3.04
2017-02-10T00:57:13.618Z,3.16
2017-02-10T00:58:13.628Z,3.1
2017-02-10T00:59:13.236Z,3.04
2017-02-10T01:00:13.646Z,3.05
2017-02-10T01:01:13.260Z,3.01
2017-02-10T01:02:13.669Z,3.01
2017-02-10T01:03:13.677Z,3.01
2017-02-10T01:04:13.787Z,2.97
2017-02-10T01:05:13.695Z,3.01
2017-02-10T01:06:13.701Z,2.93
2017-02-10T01:07:13.719Z,3.03
2017-02-10T01:08:13.725Z,2.98
2017-02-10T01:09:13.738Z,2.85
2017-02-10T01:10:13.757Z,2.97
2017-02-10T01:11:13.757Z,2.95
2017-02-10T01:12:13.766Z,2.86
2017-02-10T01:13:13.375Z,2.86
2017-02-10T01:14:13.878Z,2.86
2017-02-10T01:15:13.807Z,2.83
2017-02-10T01:16:13.797Z,2.82
2017-02-10T01:17:13.823Z,2.89
2017-02-10T01:18:13.820Z,2.85
2017-02-10T01:19:13.829Z,2.83
2017-02-10T01:20:13.844Z,2.86
2017-02-10T01:21:13.846Z,2.87
2017-02-10T01:22:13.863Z,2.83
2017-02-10T01:23:13.872Z,2.83
2017-02-10T01:24:13.582Z,2.85
2017-02-10T01:25:13.883Z,2.75
2017-02-10T01:26:13.893Z,2.74
2017-02-10T01:27:13.905Z,2.79
2017-02-10T01:28:13.915Z,2.86
2017-02-10T01:29:13.921Z,2.86
2017-02-10T01:30:13.532Z,2.85
2017-02-10T01:31:13.938Z,2.86
2017-02-10T01:32:13.955Z,2.83
2017-02-10T01:33:13.963Z,2.87
2017-02-10T01:34:14.129Z,2.8
2017-02-10T01:35:13.985Z,2.92
2017-02-10T01:36:13.994Z,2.83
2017-02-10T01:37:14.005Z,2.9
2017-02-10T01:38:14.004Z,2.9
2017-02-10T01:39:14.137Z,2.9
2017-02-10T01:40:14.145Z,2.92
2017-02-10T01:41:14.156Z,2.92
2017-02-10T01:42:14.167Z,2.93
2017-02-10T01:43:14.093Z,2.85
2017-02-10T01:44:14.277Z,2.79
2017-02-10T01:45:14.113Z,2.87
2017-02-10T01:46:14.118Z,2.8
2017-02-10T01:47:14.119Z,2.87
2017-02-10T01:48:14.128Z,2.8
2017-02-10T01:49:14.138Z,2.8
2017-02-10T01:50:14.144Z,2.75
2017-02-10T01:51:14.151Z,2.72
2017-02-10T01:52:14.163Z,2.69
2017-02-10T01:53:14.161Z,2.72
2017-02-10T01:54:14.326Z,2.74
2017-02-10T01:55:14.238Z,2.65
2017-02-10T01:56:14.322Z,2.72
2017-02-10T01:57:14.292Z,2.74
2017-02-10T01:58:14.230Z,2.65
2017-02-10T01:59:14.240Z,2.75
2017-02-10T02:00:14.242Z,2.67
2017-02-10T02:01:14.249Z,2.74
2017-02-10T02:02:14.258Z,2.74
2017-02-10T02:03:13.859Z,2.68
2017-02-10T02:04:14.441Z,2.64
2017-02-10T02:05:14.273Z,2.68
2017-02-10T02:06:14.282Z,2.67
2017-02-10T02:07:14.293Z,2.67
2017-02-10T02:08:14.362Z,2.69
2017-02-10T02:09:14.359Z,2.71
2017-02-10T02:10:14.434Z,2.68
2017-02-10T02:11:14.431Z,2.65
2017-02-10T02:12:14.034Z,2.64
2017-02-10T02:13:14.428Z,2.62
2017-02-10T02:14:14.623Z,2.67
2017-02-10T02:15:14.457Z,2.67
2017-02-10T02:16:14.457Z,2.69
2017-02-10T02:17:14.622Z,2.62
2017-02-10T02:18:14.477Z,2.69
2017-02-10T02:19:14.593Z,2.64
2017-02-10T02:20:13.609Z,2.65
2017-02-10T02:21:14.662Z,2.62
2017-02-10T02:22:14.509Z,2.69
2017-02-10T02:23:14.578Z,2.71
2017-02-10T02:24:14.770Z,2.75
2017-02-10T02:25:14.586Z,2.71
2017-02-10T02:26:14.594Z,2.72
2017-02-10T02:27:14.601Z,2.75
2017-02-10T02:28:14.211Z,2.75
2017-02-10T02:29:14.360Z,2.69
2017-02-10T02:30:14.620Z,2.71
2017-02-10T02:31:14.628Z,2.67
2017-02-10T02:32:14.635Z,2.72
2017-02-10T02:33:14.647Z,2.71
2017-02-10T02:34:14.794Z,2.69
2017-02-10T02:35:14.661Z,2.68
2017-02-10T02:36:14.701Z,2.77
2017-02-10T02:37:14.708Z,2.68
2017-02-10T02:38:14.201Z,2.72
2017-02-10T02:39:14.774Z,2.72
2017-02-10T02:40:14.721Z,2.62
2017-02-10T02:41:14.734Z,2.65
2017-02-10T02:42:14.743Z,2.71
2017-02-10T02:43:14.350Z,2.57
2017-02-10T02:44:14.165Z,2.67
2017-02-10T02:45:14.757Z,2.56
2017-02-10T02:46:14.770Z,2.62
2017-02-10T02:47:14.783Z,2.68
2017-02-10T02:48:14.763Z,2.6
2017-02-10T02:49:14.757Z,2.62
2017-02-10T02:50:14.770Z,2.72
2017-02-10T02:51:14.775Z,2.6
2017-02-10T02:52:14.381Z,2.6
2017-02-10T02:53:14.794Z,2.65
2017-02-10T02:54:16.221Z,2.65
2017-02-10T02:55:14.801Z,2.57
2017-02-10T02:56:14.411Z,2.57
2017-02-10T02:57:14.417Z,2.62
2017-02-10T02:58:14.042Z,2.57
2017-02-10T02:59:14.838Z,2.56
2017-02-10T03:00:14.824Z,2.57
2017-02-10T03:01:14.782Z,2.6
2017-02-10T03:02:14.401Z,2.54
2017-02-10T03:03:14.810Z,2.53
2017-02-10T03:04:14.967Z,2.53
2017-02-10T03:05:14.837Z,2.51
2017-02-10T03:06:15.032Z,2.62
2017-02-10T03:07:14.450Z,2.54
2017-02-10T03:08:14.579Z,2.53
2017-02-10T03:09:14.868Z,2.51
2017-02-10T03:10:14.865Z,2.47
2017-02-10T03:11:14.882Z,2.6
2017-02-10T03:12:14.890Z,2.5
2017-02-10T03:13:14.901Z,2.56
2017-02-10T03:14:14.900Z,2.51
2017-02-10T03:15:14.932Z,2.49
2017-02-10T03:16:14.952Z,2.49
2017-02-10T03:17:14.544Z,2.5
2017-02-10T03:18:14.941Z,2.47
2017-02-10T03:19:15.052Z,2.54
2017-02-10T03:20:14.563Z,2.49
2017-02-10T03:21:15.095Z,2.49
2017-02-10T03:22:15.006Z,2.47
2017-02-10T03:23:14.317Z,2.51
2017-02-10T03:24:14.602Z,2.44
2017-02-10T03:25:15.001Z,2.53
2017-02-10T03:26:14.659Z,2.47
2017-02-10T03:27:14.624Z,2.43
2017-02-10T03:28:15.035Z,2.44
2017-02-10T03:29:14.794Z,2.5
2017-02-10T03:30:14.653Z,2.43
2017-02-10T03:31:15.061Z,2.47
2017-02-10T03:32:14.670Z,2.49
2017-02-10T03:33:14.673Z,2.44
2017-02-10T03:34:14.688Z,2.47
2017-02-10T03:35:15.095Z,2.46
2017-02-10T03:36:14.698Z,2.5
2017-02-10T03:37:15.108Z,2.5
2017-02-10T03:38:14.723Z,2.44
2017-02-10T03:39:15.237Z,2.47
2017-02-10T03:40:14.745Z,2.5
2017-02-10T03:41:15.155Z,2.39
2017-02-10T03:42:14.764Z,2.35
2017-02-10T03:43:15.172Z,2.42
2017-02-10T03:44:15.181Z,2.38
2017-02-10T03:45:14.791Z,2.36
2017-02-10T03:46:15.198Z,2.38
2017-02-10T03:47:14.805Z,2.35
2017-02-10T03:48:15.211Z,2.35
2017-02-10T03:49:14.821Z,2.36
2017-02-10T03:50:14.428Z,2.35
2017-02-10T03:51:14.838Z,2.43
2017-02-10T03:52:14.842Z,2.35
2017-02-10T03:53:15.259Z,2.28
2017-02-10T03:54:15.259Z,2.38
2017-02-10T03:55:14.883Z,2.39
2017-02-10T03:56:14.887Z,2.28
2017-02-10T03:57:15.298Z,2.31
2017-02-10T03:58:14.896Z,2.36
2017-02-10T03:59:14.907Z,2.28
2017-02-10T04:00:14.917Z,2.29
2017-02-10T04:01:14.931Z,2.31
2017-02-10T04:02:15.340Z,2.32
2017-02-10T04:03:14.948Z,2.29
2017-02-10T04:04:14.955Z,2.24
2017-02-10T04:05:14.962Z,2.25
2017-02-10T04:06:14.976Z,2.26
2017-02-10T04:07:15.388Z,2.32
2017-02-10T04:08:14.996Z,2.32
2017-02-10T04:09:15.003Z,2.18
2017-02-10T04:10:15.416Z,2.17
2017-02-10T04:11:15.414Z,2.18
2017-02-10T04:12:15.430Z,2.2
2017-02-10T04:13:15.082Z,2.14
2017-02-10T04:14:15.466Z,2.2
2017-02-10T04:15:15.064Z,2.17
2017-02-10T04:16:15.067Z,2.28
2017-02-10T04:17:15.479Z,2.22
2017-02-10T04:18:15.086Z,2.26
2017-02-10T04:19:15.088Z,2.18
2017-02-10T04:20:15.099Z,2.25
2017-02-10T04:21:15.108Z,2.13
2017-02-10T04:22:15.518Z,2.22
2017-02-10T04:23:15.531Z,2.13
2017-02-10T04:24:15.536Z,2.11
2017-02-10T04:25:15.142Z,2.18
2017-02-10T04:26:15.557Z,2.15
2017-02-10T04:27:15.155Z,2.24
2017-02-10T04:28:15.175Z,2.15
2017-02-10T04:29:15.183Z,2.13
2017-02-10T04:30:15.190Z,2.15
2017-02-10T04:31:15.199Z,2.17
2017-02-10T04:32:15.612Z,2.13
2017-02-10T04:33:14.814Z,2.22
2017-02-10T04:34:15.637Z,2.14
2017-02-10T04:35:15.639Z,2.13
2017-02-10T04:36:14.845Z,2.15
2017-02-10T04:37:14.839Z,2.08
2017-02-10T04:38:15.668Z,2.14
2017-02-10T04:39:15.270Z,2.22
2017-02-10T04:40:15.682Z,2.15
2017-02-10T04:41:15.694Z,2.15
2017-02-10T04:42:15.301Z,2.15
2017-02-10T04:43:15.698Z,2.1
2017-02-10T04:44:15.720Z,2.13
2017-02-10T04:45:15.325Z,2.15
2017-02-10T04:46:15.735Z,2.13
2017-02-10T04:47:15.747Z,2.17
2017-02-10T04:48:15.753Z,2.17
2017-02-10T04:49:15.759Z,2.14
2017-02-10T04:50:15.777Z,2.22
2017-02-10T04:51:15.368Z,2.14
2017-02-10T04:52:15.788Z,2.17
2017-02-10T04:53:15.801Z,2.15
2017-02-10T04:54:15.807Z,2.18
2017-02-10T04:55:15.127Z,2.18
2017-02-10T04:56:15.823Z,2.15
2017-02-10T04:57:15.834Z,2.17
2017-02-10T04:58:15.441Z,2.14
2017-02-10T04:59:15.847Z,2.13
2017-02-10T05:00:15.152Z,2.17
2017-02-10T05:01:15.865Z,2.17
2017-02-10T05:02:15.474Z,2.17
2017-02-10T05:03:15.919Z,2.18
2017-02-10T05:04:15.914Z,2.17
2017-02-10T05:05:15.988Z,2.13
2017-02-10T05:06:15.509Z,2.14
2017-02-10T05:07:16.002Z,2.18
2017-02-10T05:08:16.003Z,2.17
2017-02-10T05:09:15.553Z,2.17
2017-02-10T05:10:16.021Z,2.14
2017-02-10T05:11:15.593Z,2.18
2017-02-10T05:12:15.566Z,2.13
2017-02-10T05:13:16.039Z,2.15
2017-02-10T05:14:16.044Z,2.13
2017-02-10T05:15:16.053Z,2.11
2017-02-10T05:16:16.006Z,2.13
2017-02-10T05:17:16.012Z,2.15
2017-02-10T05:18:16.018Z,2.13
2017-02-10T05:19:16.032Z,2.13
2017-02-10T05:20:15.638Z,2.15
2017-02-10T05:21:16.038Z,2.18
2017-02-10T05:22:16.056Z,2.18
2017-02-10T05:23:16.052Z,2.15
2017-02-10T05:24:16.070Z,2.22
2017-02-10T05:25:15.677Z,2.15
2017-02-10T05:26:16.083Z,2.17
2017-02-10T05:27:16.083Z,2.15
2017-02-10T05:28:16.204Z,2.17
2017-02-10T05:29:16.117Z,2.11
2017-02-10T05:30:15.314Z,2.15
2017-02-10T05:31:16.140Z,2.14
2017-02-10T05:32:15.334Z,2.1
2017-02-10T05:33:15.758Z,2.11
2017-02-10T05:34:15.765Z,2.11
2017-02-10T05:35:15.774Z,2.07
2017-02-10T05:36:16.176Z,2.15
2017-02-10T05:37:15.841Z,2.1
2017-02-10T05:38:16.198Z,2.06
2017-02-10T05:39:15.396Z,2.08
2017-02-10T05:40:15.867Z,1.97
2017-02-10T05:41:15.816Z,2.06
2017-02-10T05:42:16.230Z,2.06
2017-02-10T05:43:15.836Z,2
2017-02-10T05:44:16.242Z,2.04
2017-02-10T05:45:16.255Z,2.02
2017-02-10T05:46:15.461Z,2.02
2017-02-10T05:47:16.271Z,2.04
2017-02-10T05:48:15.478Z,2.06
2017-02-10T05:49:15.885Z,1.97
2017-02-10T05:50:15.994Z,2.14
2017-02-10T05:51:15.911Z,2.08
2017-02-10T05:52:16.321Z,2.06
2017-02-10T05:53:16.325Z,2.15
2017-02-10T05:54:16.334Z,1.99
2017-02-10T05:55:15.940Z,1.99
2017-02-10T05:56:15.943Z,2.14
2017-02-10T05:57:16.363Z,2.07
2017-02-10T05:58:16.375Z,2.07
2017-02-10T05:59:15.978Z,1.99
2017-02-10T06:00:16.388Z,1.99
2017-02-10T06:01:16.394Z,1.91
2017-02-10T06:02:16.399Z,2.07
2017-02-10T06:03:16.407Z,2.02
2017-02-10T06:04:16.419Z,1.99
2017-02-10T06:05:16.027Z,2
2017-02-10T06:06:16.428Z,2.02
2017-02-10T06:07:16.439Z,2.02
2017-02-10T06:08:16.454Z,2.02
2017-02-10T06:09:16.464Z,2.06
2017-02-10T06:10:16.471Z,2.1
2017-02-10T06:11:16.481Z,2.06
2017-02-10T06:12:16.487Z,2.06
2017-02-10T06:13:16.500Z,2.04
2017-02-10T06:14:16.103Z,2
2017-02-10T06:15:16.116Z,2
2017-02-10T06:16:16.513Z,1.97
2017-02-10T06:17:16.132Z,2.08
2017-02-10T06:18:16.539Z,2.06
2017-02-10T06:19:15.740Z,2.1
2017-02-10T06:20:16.155Z,2.07
2017-02-10T06:21:16.569Z,2.17
2017-02-10T06:22:16.282Z,2.13
2017-02-10T06:23:16.266Z,2.11
2017-02-10T06:24:16.279Z,2.15
2017-02-10T06:25:16.285Z,2.15
2017-02-10T06:26:16.410Z,2.15
2017-02-10T06:27:16.811Z,2.17
2017-02-10T06:28:16.744Z,2.13
2017-02-10T06:29:16.854Z,2.17
2017-02-10T06:30:16.616Z,2.13
2017-02-10T06:31:16.842Z,2.18
2017-02-10T06:32:16.438Z,2.14
2017-02-10T06:33:16.672Z,2.22
2017-02-10T06:34:16.670Z,2.18
2017-02-10T06:35:16.692Z,2.18
2017-02-10T06:36:16.703Z,2.18
2017-02-10T06:37:16.714Z,2.17
2017-02-10T06:38:16.713Z,2.18
2017-02-10T06:39:16.732Z,2.18
2017-02-10T06:40:16.735Z,2.18
2017-02-10T06:41:16.751Z,2.13
2017-02-10T06:42:16.752Z,2.22
2017-02-10T06:43:16.746Z,2.17
2017-02-10T06:44:16.763Z,2.15
2017-02-10T06:45:16.373Z,2.14
2017-02-10T06:46:16.784Z,2.18
2017-02-10T06:47:16.795Z,2.17
2017-02-10T06:48:16.800Z,2.15
2017-02-10T06:49:16.812Z,2.18
2017-02-10T06:50:16.421Z,2.17
2017-02-10T06:51:16.420Z,2.22
2017-02-10T06:52:16.839Z,2.14
2017-02-10T06:53:16.846Z,2.18
2017-02-10T06:54:16.052Z,2.14
2017-02-10T06:55:16.867Z,2.13
2017-02-10T06:56:16.063Z,2.15
2017-02-10T06:57:16.873Z,2.18
2017-02-10T06:58:16.488Z,2.17
2017-02-10T06:59:16.889Z,2.18
2017-02-10T07:00:16.501Z,2.15
2017-02-10T07:01:16.917Z,2.11
2017-02-10T07:02:16.921Z,2.24
2017-02-10T07:03:16.540Z,2.17
2017-02-10T07:04:16.941Z,2.18
2017-02-10T07:05:16.951Z,2.24
2017-02-10T07:06:16.557Z,2.32
2017-02-10T07:07:16.967Z,2.25
2017-02-10T07:08:16.986Z,2.2
2017-02-10T07:09:16.987Z,2.28
2017-02-10T07:10:16.986Z,2.24
2017-02-10T07:11:16.601Z,2.28
2017-02-10T07:12:16.609Z,2.2
2017-02-10T07:13:17.008Z,2.29
2017-02-10T07:14:17.024Z,2.26
2017-02-10T07:15:17.033Z,2.28
2017-02-10T07:16:17.031Z,2.28
2017-02-10T07:17:17.050Z,2.28
2017-02-10T07:18:16.656Z,2.32
2017-02-10T07:19:16.669Z,2.25
2017-02-10T07:20:17.183Z,2.31
2017-02-10T07:21:16.686Z,2.33
2017-02-10T07:22:17.083Z,2.26
2017-02-10T07:23:17.219Z,2.29
2017-02-10T07:24:16.713Z,2.32
2017-02-10T07:25:16.715Z,2.38
2017-02-10T07:26:17.134Z,2.28
2017-02-10T07:27:17.144Z,2.32
2017-02-10T07:28:17.144Z,2.33
2017-02-10T07:29:17.157Z,2.32
2017-02-10T07:30:17.167Z,2.31
2017-02-10T07:31:17.173Z,2.36
2017-02-10T07:32:16.784Z,2.31
2017-02-10T07:33:16.794Z,2.38
2017-02-10T07:34:16.801Z,2.33
2017-02-10T07:35:17.210Z,2.39
2017-02-10T07:36:17.223Z,2.39
2017-02-10T07:37:17.225Z,2.5
2017-02-10T07:38:16.838Z,2.47
2017-02-10T07:39:16.923Z,2.47
2017-02-10T07:40:17.386Z,2.5
2017-02-10T07:41:16.943Z,2.49
2017-02-10T07:42:17.357Z,2.57
2017-02-10T07:43:16.994Z,2.56
2017-02-10T07:44:17.003Z,2.61
2017-02-10T07:45:17.305Z,2.54
2017-02-10T07:46:17.311Z,2.6
2017-02-10T07:47:16.916Z,2.64
2017-02-10T07:48:16.923Z,2.6
2017-02-10T07:49:17.332Z,2.64
2017-02-10T07:50:17.353Z,2.65
2017-02-10T07:51:17.359Z,2.62
2017-02-10T07:52:17.364Z,2.68
2017-02-10T07:53:17.372Z,2.65
2017-02-10T07:54:16.974Z,2.62
2017-02-10T07:55:17.486Z,2.68
2017-02-10T07:56:17.398Z,2.65
2017-02-10T07:57:17.406Z,2.67
2017-02-10T07:58:17.009Z,2.6
2017-02-10T07:59:17.412Z,2.69
2017-02-10T08:00:17.028Z,2.65
2017-02-10T08:01:17.447Z,2.72
2017-02-10T08:02:17.036Z,2.72
2017-02-10T08:03:17.461Z,2.8
2017-02-10T08:04:17.067Z,2.8
2017-02-10T08:05:17.588Z,2.86
2017-02-10T08:06:17.083Z,2.85
2017-02-10T08:07:17.616Z,2.83
2017-02-10T08:08:17.586Z,2.83
2017-02-10T08:09:17.116Z,2.85
2017-02-10T08:10:17.127Z,2.79
2017-02-10T08:11:17.598Z,2.83
2017-02-10T08:12:17.141Z,2.85
2017-02-10T08:13:17.612Z,2.89
2017-02-10T08:14:17.159Z,2.89
2017-02-10T08:15:17.263Z,2.95
2017-02-10T08:16:17.624Z,3.03
2017-02-10T08:17:17.633Z,3.03
2017-02-10T08:18:17.195Z,3.03
2017-02-10T08:19:17.202Z,3.03
2017-02-10T08:20:17.203Z,3.11
2017-02-10T08:21:17.628Z,3.11
2017-02-10T08:22:17.222Z,3.13
2017-02-10T08:23:17.231Z,3.04
2017-02-10T08:24:17.653Z,3.07
2017-02-10T08:25:17.816Z,3.08
2017-02-10T08:26:16.860Z,3.08
2017-02-10T08:27:17.277Z,3.14
2017-02-10T08:28:17.731Z,3.13
2017-02-10T08:29:17.738Z,3.18
2017-02-10T08:30:17.303Z,3.16
2017-02-10T08:31:17.757Z,3.18
2017-02-10T08:32:17.319Z,3.21
2017-02-10T08:33:17.762Z,3.25
2017-02-10T08:34:17.336Z,3.22
2017-02-10T08:35:17.950Z,3.26
2017-02-10T08:36:17.790Z,3.23
2017-02-10T08:37:17.795Z,3.28
2017-02-10T08:38:17.797Z,3.28
2017-02-10T08:39:17.931Z,3.26
2017-02-10T08:40:17.229Z,3.28
2017-02-10T08:41:17.926Z,3.32
2017-02-10T08:42:17.927Z,3.25
2017-02-10T08:43:17.542Z,3.31
2017-02-10T08:44:17.550Z,3.32
2017-02-10T08:45:17.927Z,3.42
2017-02-10T08:46:17.570Z,3.44
2017-02-10T08:47:17.564Z,3.53
2017-02-10T08:48:17.949Z,3.48
2017-02-10T08:49:17.960Z,3.53
2017-02-10T08:50:17.618Z,3.47
2017-02-10T08:51:17.599Z,3.6
2017-02-10T08:52:18.065Z,3.65
2017-02-10T08:53:18.074Z,3.69
2017-02-10T08:54:18.085Z,3.63
2017-02-10T08:55:17.556Z,3.68
2017-02-10T08:56:18.105Z,3.69
2017-02-10T08:57:18.100Z,3.62
2017-02-10T08:58:18.107Z,3.62
2017-02-10T08:59:17.709Z,3.62
2017-02-10T09:00:18.265Z,3.59
2017-02-10T09:01:18.133Z,3.48
2017-02-10T09:02:18.131Z,3.55
2017-02-10T09:03:18.145Z,3.5
2017-02-10T09:04:17.707Z,3.58
2017-02-10T09:05:17.796Z,3.62
2017-02-10T09:06:18.211Z,3.6
2017-02-10T09:07:17.668Z,3.59
2017-02-10T09:08:18.193Z,3.68
2017-02-10T09:09:18.204Z,3.65
2017-02-10T09:10:18.257Z,3.69
2017-02-10T09:11:18.219Z,3.73
2017-02-10T09:12:18.220Z,3.68
2017-02-10T09:13:18.256Z,3.65
2017-02-10T09:14:17.896Z,3.65
2017-02-10T09:15:18.291Z,3.68
2017-02-10T09:16:17.736Z,3.65
2017-02-10T09:17:18.254Z,3.69
2017-02-10T09:18:18.268Z,3.68
2017-02-10T09:19:18.243Z,3.74
2017-02-10T09:20:17.879Z,3.65
2017-02-10T09:21:18.497Z,3.73
2017-02-10T09:22:18.259Z,3.62
2017-02-10T09:23:18.027Z,3.68
2017-02-10T09:24:18.286Z,3.8
2017-02-10T09:25:17.501Z,3.7
2017-02-10T09:26:18.297Z,3.77
2017-02-10T09:27:17.919Z,3.81
2017-02-10T09:28:18.307Z,3.77
2017-02-10T09:29:18.310Z,3.8
2017-02-10T09:30:18.322Z,3.73
2017-02-10T09:31:18.331Z,3.86
2017-02-10T09:32:18.279Z,3.81
2017-02-10T09:33:18.277Z,3.77
2017-02-10T09:34:18.302Z,3.78
2017-02-10T09:35:18.321Z,3.84
2017-02-10T09:36:18.328Z,3.8
2017-02-10T09:37:18.347Z,3.81
2017-02-10T09:38:18.342Z,3.87
2017-02-10T09:39:18.376Z,3.92
2017-02-10T09:40:18.352Z,3.92
2017-02-10T09:41:18.369Z,3.86
2017-02-10T09:42:18.079Z,3.98
2017-02-10T09:43:18.401Z,4.01
2017-02-10T09:44:18.403Z,3.94
2017-02-10T09:45:18.142Z,4.04
2017-02-10T09:46:18.496Z,4.05
2017-02-10T09:47:18.508Z,4.08
2017-02-10T09:48:18.512Z,4.14
2017-02-10T09:49:18.445Z,4.24
2017-02-10T09:50:18.524Z,4.23
2017-02-10T09:51:18.529Z,4.22
2017-02-10T09:52:18.080Z,4.34
2017-02-10T09:53:18.548Z,4.3
2017-02-10T09:54:18.605Z,4.3
2017-02-10T09:55:18.615Z,4.37
2017-02-10T09:56:18.625Z,4.4
2017-02-10T09:57:18.634Z,4.37
2017-02-10T09:58:18.641Z,4.3
2017-02-10T09:59:18.650Z,4.37
2017-02-10T10:00:18.563Z,4.41
2017-02-10T10:01:18.669Z,4.41
2017-02-10T10:02:18.179Z,4.45
2017-02-10T10:03:18.712Z,4.45
2017-02-10T10:04:18.610Z,4.48
2017-02-10T10:05:18.622Z,4.45
2017-02-10T10:06:18.729Z,4.5
2017-02-10T10:07:18.221Z,4.53
2017-02-10T10:08:18.748Z,4.52
2017-02-10T10:09:18.646Z,4.48
2017-02-10T10:10:18.662Z,4.55
2017-02-10T10:11:18.722Z,4.53
2017-02-10T10:12:18.793Z,4.56
2017-02-10T10:13:18.800Z,4.59
2017-02-10T10:14:18.796Z,4.6
2017-02-10T10:15:18.798Z,4.6
2017-02-10T10:16:18.575Z,4.74
2017-02-10T10:17:18.814Z,4.58
2017-02-10T10:18:18.982Z,4.71
2017-02-10T10:19:18.833Z,4.67
2017-02-10T10:20:18.838Z,4.67
2017-02-10T10:21:18.997Z,4.67
2017-02-10T10:22:19.002Z,4.7
2017-02-10T10:23:19.016Z,4.71
2017-02-10T10:24:19.025Z,4.66
2017-02-10T10:25:19.032Z,4.78
2017-02-10T10:26:19.042Z,4.8
2017-02-10T10:27:18.941Z,4.78
2017-02-10T10:28:18.952Z,4.82
2017-02-10T10:29:18.551Z,4.82
2017-02-10T10:30:18.946Z,4.86
2017-02-10T10:31:18.969Z,4.86
2017-02-10T10:32:19.086Z,4.82
2017-02-10T10:33:18.985Z,4.86
2017-02-10T10:34:18.998Z,4.89
2017-02-10T10:35:19.003Z,4.82
2017-02-10T10:36:19.144Z,4.8
2017-02-10T10:37:19.151Z,4.87
2017-02-10T10:38:19.170Z,4.87
2017-02-10T10:39:19.066Z,4.93
2017-02-10T10:40:18.664Z,4.94
2017-02-10T10:41:19.076Z,4.93
2017-02-10T10:42:18.683Z,4.92
2017-02-10T10:43:19.095Z,4.99
2017-02-10T10:44:19.101Z,4.93
2017-02-10T10:45:19.108Z,5.02
2017-02-10T10:46:18.752Z,4.97
2017-02-10T10:47:19.118Z,4.92
2017-02-10T10:48:19.120Z,5
2017-02-10T10:49:19.133Z,5.04
2017-02-10T10:50:19.143Z,4.94
2017-02-10T10:51:19.185Z,4.89
2017-02-10T10:52:19.119Z,4.92
2017-02-10T10:53:19.132Z,5.04
2017-02-10T10:54:19.139Z,4.92
2017-02-10T10:55:19.140Z,5.05
2017-02-10T10:56:19.149Z,4.9
2017-02-10T10:57:19.159Z,4.97
2017-02-10T10:58:19.164Z,5.02
2017-02-10T10:59:19.176Z,4.94
2017-02-10T11:00:19.185Z,5
2017-02-10T11:01:18.967Z,5.05
2017-02-10T11:02:19.209Z,5.08
2017-02-10T11:03:19.204Z,5.1
2017-02-10T11:04:19.225Z,5.11
2017-02-10T11:05:19.032Z,5.11
2017-02-10T11:06:19.248Z,5.1
2017-02-10T11:07:19.254Z,5.11
2017-02-10T11:08:19.265Z,5.14
2017-02-10T11:09:19.281Z,5.17
2017-02-10T11:10:19.291Z,5.11
2017-02-10T11:11:19.074Z,5.23
2017-02-10T11:12:19.315Z,5.21
2017-02-10T11:13:19.328Z,5.2
2017-02-10T11:14:19.331Z,5.26
2017-02-10T11:15:19.341Z,5.21
2017-02-10T11:16:19.351Z,5.21
2017-02-10T11:17:19.116Z,5.2
2017-02-10T11:18:19.374Z,5.17
2017-02-10T11:19:19.387Z,5.3
2017-02-10T11:20:19.515Z,5.23
2017-02-10T11:21:19.414Z,5.18
2017-02-10T11:22:19.420Z,5.26
2017-02-10T11:23:19.430Z,5.18
2017-02-10T11:24:19.444Z,5.29
2017-02-10T11:25:19.453Z,5.2
2017-02-10T11:26:19.564Z,5.18
2017-02-10T11:27:19.476Z,5.23
2017-02-10T11:28:19.483Z,5.2
2017-02-10T11:29:19.495Z,5.35
2017-02-10T11:30:19.136Z,5.3
2017-02-10T11:31:19.107Z,5.36
2017-02-10T11:32:19.529Z,5.35
2017-02-10T11:33:19.540Z,5.28
2017-02-10T11:34:19.547Z,5.36
2017-02-10T11:35:19.590Z,5.41
2017-02-10T11:36:19.171Z,5.44
2017-02-10T11:37:19.576Z,5.44
2017-02-10T11:38:19.594Z,5.33
2017-02-10T11:39:19.600Z,5.41
2017-02-10T11:40:19.611Z,5.39
2017-02-10T11:41:19.222Z,5.39
2017-02-10T11:42:19.237Z,5.41
2017-02-10T11:43:19.642Z,5.43
2017-02-10T11:44:19.661Z,5.44
2017-02-10T11:45:19.268Z,5.43
2017-02-10T11:46:19.682Z,5.44
2017-02-10T11:47:19.698Z,5.43
2017-02-10T11:48:19.700Z,5.43
2017-02-10T11:49:19.716Z,5.44
2017-02-10T11:50:19.727Z,5.39
2017-02-10T11:51:19.829Z,5.43
2017-02-10T11:52:19.742Z,5.3
2017-02-10T11:53:19.756Z,5.32
2017-02-10T11:54:19.803Z,5.35
2017-02-10T11:55:19.377Z,5.38
2017-02-10T11:56:19.791Z,5.3
2017-02-10T11:57:19.801Z,5.3
2017-02-10T11:58:19.904Z,5.41
2017-02-10T11:59:19.826Z,5.46
2017-02-10T12:00:19.827Z,5.38
2017-02-10T12:01:19.871Z,5.44
2017-02-10T12:02:19.859Z,5.46
2017-02-10T12:03:20.026Z,5.41
2017-02-10T12:04:19.479Z,5.48
2017-02-10T12:05:19.895Z,5.48
2017-02-10T12:06:19.905Z,5.47
2017-02-10T12:07:19.909Z,5.48
2017-02-10T12:08:19.924Z,5.54
2017-02-10T12:09:19.933Z,5.54
2017-02-10T12:10:19.949Z,5.48
2017-02-10T12:11:19.959Z,5.54
2017-02-10T12:12:19.973Z,5.54
2017-02-10T12:13:19.984Z,5.51
2017-02-10T12:14:19.591Z,5.62
2017-02-10T12:15:20.005Z,5.57
2017-02-10T12:16:20.015Z,5.56
2017-02-10T12:17:20.020Z,5.48
2017-02-10T12:18:20.031Z,5.62
2017-02-10T12:19:20.041Z,5.56
2017-02-10T12:20:19.660Z,5.51
2017-02-10T12:21:20.070Z,5.5
2017-02-10T12:22:20.080Z,5.51
2017-02-10T12:23:20.097Z,5.57
2017-02-10T12:24:19.707Z,5.57
2017-02-10T12:25:20.117Z,5.53
2017-02-10T12:26:19.728Z,5.64
2017-02-10T12:27:20.121Z,5.59
2017-02-10T12:28:20.145Z,5.57
2017-02-10T12:29:20.162Z,5.64
2017-02-10T12:30:20.168Z,5.57
2017-02-10T12:31:20.187Z,5.57
2017-02-10T12:32:19.795Z,5.56
2017-02-10T12:33:19.805Z,5.65
2017-02-10T12:34:20.214Z,5.57
2017-02-10T12:35:20.218Z,5.5
2017-02-10T12:36:20.241Z,5.65
2017-02-10T12:37:20.250Z,5.51
2017-02-10T12:38:20.265Z,5.59
2017-02-10T12:39:20.263Z,5.57
2017-02-10T12:40:20.289Z,5.5
2017-02-10T12:41:20.301Z,5.51
2017-02-10T12:42:20.311Z,5.5
2017-02-10T12:43:20.323Z,5.51
2017-02-10T12:44:20.330Z,5.53
2017-02-10T12:45:20.338Z,5.47
2017-02-10T12:46:20.344Z,5.46
2017-02-10T12:47:20.395Z,5.47
2017-02-10T12:48:20.377Z,5.44
2017-02-10T12:49:20.381Z,5.5
2017-02-10T12:50:20.396Z,5.39
2017-02-10T12:51:20.410Z,5.39
2017-02-10T12:52:20.419Z,5.39
2017-02-10T12:53:20.438Z,5.43
2017-02-10T12:54:20.444Z,5.41
2017-02-10T12:55:20.459Z,5.38
2017-02-10T12:56:20.466Z,5.3
2017-02-10T12:57:20.477Z,5.35
2017-02-10T12:58:20.471Z,5.35
2017-02-10T12:59:20.502Z,5.33
2017-02-10T13:00:20.102Z,5.3
2017-02-10T13:01:20.525Z,5.41
2017-02-10T13:02:20.530Z,5.36
2017-02-10T13:03:20.538Z,5.32
2017-02-10T13:04:20.538Z,5.3
2017-02-10T13:05:20.170Z,5.29
2017-02-10T13:06:20.578Z,5.3
2017-02-10T13:07:20.595Z,5.3
2017-02-10T13:08:20.598Z,5.26
2017-02-10T13:09:20.207Z,5.26
2017-02-10T13:10:20.633Z,5.29
2017-02-10T13:11:20.632Z,5.29
2017-02-10T13:12:20.646Z,5.32
2017-02-10T13:13:20.656Z,5.39
2017-02-10T13:14:20.668Z,5.39
2017-02-10T13:15:20.665Z,5.32
2017-02-10T13:16:20.689Z,5.33
2017-02-10T13:17:20.702Z,5.3
2017-02-10T13:18:20.700Z,5.33
2017-02-10T13:19:20.722Z,5.36
2017-02-10T13:20:20.734Z,5.38
2017-02-10T13:21:20.750Z,5.48